createdAt,value
2023-01-09T00:01:20.913Z,100
2023-01-09T00:04:17.392Z,100
2023-01-09T00:07:16.952Z,100
2023-01-09T00:11:16.907Z,100
2023-01-09T00:14:17.936Z,100
2023-01-09T00:17:17.220Z,100
2023-01-09T00:21:15.887Z,100
2023-01-09T00:24:16.305Z,100
2023-01-09T00:27:16.398Z,100
2023-01-09T00:31:18.237Z,100
2023-01-09T00:34:17.196Z,100
2023-01-09T00:37:17.051Z,100
2023-01-09T00:41:20.540Z,100
2023-01-09T00:44:19.863Z,100
2023-01-09T00:47:21.766Z,100
2023-01-09T00:51:18.836Z,100
2023-01-09T00:54:19.410Z,100
2023-01-09T00:57:17.275Z,100
2023-01-09T01:01:16.158Z,100
2023-01-09T01:11:17.315Z,100
2023-01-09T01:14:16.853Z,100
2023-01-09T01:17:16.813Z,100
2023-01-09T01:21:16.979Z,100
2023-01-09T01:24:20.030Z,100
2023-01-09T01:27:17.168Z,100
2023-01-09T01:31:18.457Z,100
2023-01-09T01:34:17.161Z,100
2023-01-09T01:37:17.324Z,100
2023-01-09T01:41:29.818Z,100
2023-01-09T01:45:08.726Z,100
2023-01-09T01:47:18.067Z,100
2023-01-09T01:51:19.864Z,100
2023-01-09T01:54:23.890Z,100
2023-01-09T01:57:16.652Z,100
2023-01-09T02:01:18.206Z,100
2023-01-09T02:04:17.666Z,100
2023-01-09T02:07:17.125Z,100
2023-01-09T02:11:18.047Z,100
2023-01-09T02:14:18.812Z,100
2023-01-09T02:17:29.469Z,100
2023-01-09T02:21:27.084Z,100
2023-01-09T02:24:35.309Z,100
2023-01-09T02:27:36.558Z,100
2023-01-09T02:31:21.377Z,100
2023-01-09T02:34:25.598Z,100
2023-01-09T02:37:25.038Z,100
2023-01-09T02:41:21.929Z,100
2023-01-09T02:44:21.115Z,100
2023-01-09T02:47:48.473Z,100
2023-01-09T02:51:23.021Z,100
2023-01-09T02:54:28.696Z,100
2023-01-09T02:57:35.636Z,100
2023-01-09T03:01:26.699Z,100
2023-01-09T03:04:22.987Z,100
2023-01-09T03:07:24.458Z,100
2023-01-09T03:11:16.080Z,100
2023-01-09T03:14:20.485Z,100
2023-01-09T03:17:22.891Z,100
2023-01-09T03:21:16.839Z,100
2023-01-09T03:24:16.796Z,100
2023-01-09T03:27:17.262Z,100
2023-01-09T03:31:16.890Z,100
2023-01-09T03:34:16.607Z,100
2023-01-09T03:37:16.549Z,100
2023-01-09T03:41:17.005Z,100
2023-01-09T03:44:16.732Z,100
2023-01-09T03:47:16.814Z,100
2023-01-09T03:51:16.455Z,100
2023-01-09T03:54:16.879Z,100
2023-01-09T03:57:16.702Z,100
2023-01-09T04:01:16.575Z,100
2023-01-09T04:04:17.128Z,100
2023-01-09T04:07:17.403Z,100
2023-01-09T04:11:18.332Z,100
2023-01-09T04:14:17.134Z,100
2023-01-09T04:17:17.083Z,100
2023-01-09T04:21:16.321Z,100
2023-01-09T04:24:16.893Z,100
2023-01-09T04:27:17.770Z,100
2023-01-09T04:31:16.592Z,100
2023-01-09T04:34:16.885Z,100
2023-01-09T04:37:16.577Z,100
2023-01-09T04:41:49.041Z,100
2023-01-09T04:44:17.592Z,100
2023-01-09T04:47:16.813Z,100
2023-01-09T04:51:16.492Z,100
2023-01-09T04:54:17.269Z,100
2023-01-09T04:57:17.525Z,100
2023-01-09T05:01:16.753Z,100
2023-01-09T05:04:17.253Z,100
2023-01-09T05:07:16.920Z,100
2023-01-09T05:11:16.173Z,100
2023-01-09T05:14:16.685Z,100
2023-01-09T05:17:16.391Z,100
2023-01-09T05:21:16.272Z,100
2023-01-09T05:24:16.860Z,100
2023-01-09T05:27:19.033Z,100
2023-01-09T05:31:17.593Z,100
2023-01-09T05:34:17.497Z,100
2023-01-09T05:37:17.428Z,100
2023-01-09T05:41:17.524Z,100
2023-01-09T05:44:17.608Z,100
2023-01-09T05:47:17.469Z,100
2023-01-09T05:51:17.198Z,100
2023-01-09T05:54:18.113Z,100
2023-01-09T05:57:17.255Z,100
2023-01-09T06:01:15.926Z,100
2023-01-09T06:04:16.258Z,100
2023-01-09T06:07:20.304Z,100
2023-01-09T06:11:16.253Z,100
2023-01-09T06:14:16.624Z,100
2023-01-09T06:17:16.689Z,100
2023-01-09T06:21:16.108Z,100
2023-01-09T06:24:16.806Z,100
2023-01-09T06:27:16.555Z,100
2023-01-09T06:31:16.383Z,100
2023-01-09T06:34:16.763Z,100
2023-01-09T06:37:16.844Z,100
2023-01-09T06:41:16.476Z,100
2023-01-09T06:44:16.778Z,100
2023-01-09T06:47:16.902Z,100
2023-01-09T06:51:16.144Z,100
2023-01-09T06:54:16.698Z,100
2023-01-09T06:57:16.613Z,100
2023-01-09T07:01:16.146Z,100
2023-01-09T07:04:18.008Z,100
2023-01-09T07:07:16.548Z,100
2023-01-09T07:11:16.190Z,100
2023-01-09T07:14:16.625Z,100
2023-01-09T07:17:16.829Z,100
2023-01-09T07:21:16.287Z,100
2023-01-09T07:24:16.725Z,100
2023-01-09T07:27:16.715Z,100
2023-01-09T07:31:16.871Z,100
2023-01-09T07:34:17.142Z,100
2023-01-09T07:37:17.215Z,100
2023-01-09T07:41:15.711Z,100
2023-01-09T07:44:16.224Z,100
2023-01-09T07:47:16.211Z,100
2023-01-09T07:51:21.363Z,100
2023-01-09T07:54:22.138Z,100
2023-01-09T07:57:21.663Z,100
2023-01-09T15:01:20.915Z,99.72384599848569
2023-01-09T15:04:39.671Z,99.7077243346762
2023-01-09T15:07:20.544Z,99.97764242497925
2023-01-09T15:11:17.845Z,97.39937304602931
2023-01-09T15:14:28.670Z,96.43899709309885
2023-01-09T15:17:20.998Z,98.3560984226165
2023-01-09T15:21:20.884Z,98.07540255833199
2023-01-09T15:24:22.039Z,98.7429915143682
2023-01-09T15:27:16.872Z,98.09247567660434
2023-01-09T15:31:18.939Z,95.75738283291427
2023-01-09T15:34:19.845Z,93.51024181724503
2023-01-09T15:37:26.192Z,91.45947915332842
2023-01-09T15:42:57.362Z,91.65995548482354
2023-01-09T15:44:20.594Z,92.68394061207066
2023-01-09T15:47:21.829Z,94.6356002977165
2023-01-09T15:51:17.682Z,94.63790015183902
2023-01-09T15:54:20.066Z,95.08957268925
2023-01-09T15:57:32.295Z,96.31924813082537
2023-01-09T16:01:26.897Z,96.95343814871133
2023-01-09T16:04:16.857Z,97.54146866800225
2023-01-09T16:07:20.005Z,97.32499409124159
2023-01-09T16:11:22.963Z,97.13794059657334
2023-01-09T16:14:20.392Z,96.84698216236784
2023-01-09T16:17:17.469Z,97.28265541056659
2023-01-09T16:21:32.040Z,98.39327702448203
2023-01-09T16:24:26.940Z,99.43638271926906
2023-01-09T16:27:26.640Z,99.8981658620255
2023-01-09T16:31:20.674Z,99.5079957998236
2023-01-09T16:34:17.819Z,99.49107527531037
2023-01-09T16:37:16.990Z,98.87850026016869
2023-01-09T16:51:18.322Z,95.63116555132642
2023-01-09T16:54:17.014Z,95.10814850166048
2023-01-09T16:57:17.455Z,95.26791098762553
2023-01-09T17:01:16.791Z,95.77461339392626
2023-01-09T17:04:17.579Z,95.01911255455458
2023-01-09T17:07:19.558Z,94.3780879676013
2023-01-09T17:11:19.809Z,95.16448905232988
2023-01-09T17:14:16.044Z,95.40173792675556
2023-01-09T17:17:16.645Z,96.58713946039525
2023-01-09T17:21:18.227Z,96.38402408579277
2023-01-09T17:31:17.163Z,95.49719216720366
2023-01-09T17:34:16.563Z,95.49938185933514
2023-01-09T17:37:18.440Z,95.23299266866152
2023-01-09T17:41:16.327Z,95.6934674179158
2023-01-09T17:44:16.753Z,96.76500422292018
2023-01-09T17:47:16.691Z,97.64210564935472
2023-01-09T17:51:15.632Z,97.53531172448963
2023-01-09T17:54:16.172Z,98.97961846234044
2023-01-09T17:57:16.485Z,99.48177594080659
2023-01-09T18:01:17.717Z,97.35870936977186
2023-01-09T18:04:15.989Z,95.0204742595699
2023-01-09T18:07:16.842Z,95.76486523323304
2023-01-09T18:11:19.870Z,94.97646095214834
2023-01-09T18:14:17.731Z,95.34529724638476
2023-01-09T18:17:16.458Z,95.98719689547544
2023-01-09T18:21:18.825Z,95.14261992599644
2023-01-09T18:24:16.545Z,94.91895109067586
2023-01-09T18:27:25.690Z,94.0615775248217
2023-01-09T18:31:24.902Z,93.83300002530777
2023-01-09T18:34:22.607Z,94.1903995419553
2023-01-09T18:37:27.233Z,94.09605595484703
2023-01-09T18:41:23.848Z,93.44500727084919
2023-01-09T18:44:20.529Z,93.56655844240306
2023-01-09T18:47:23.131Z,93.78585899493382
2023-01-09T18:51:18.227Z,93.1098463976734
2023-01-09T18:54:17.931Z,93.36920420158017
2023-01-09T18:57:29.345Z,94.08679266403833
2023-01-09T19:01:16.737Z,93.37245052673904
2023-01-09T19:04:16.847Z,94.1000707850886
2023-01-09T19:07:17.149Z,94.40498571659481
2023-01-09T19:11:15.980Z,94.47407986222088
2023-01-09T19:14:16.348Z,94.0947178416788
2023-01-09T19:17:16.253Z,93.9254393799469
2023-01-09T19:21:18.486Z,95.09339161434285
2023-01-09T19:24:16.913Z,94.76908892231046
2023-01-09T19:27:17.183Z,94.83445370143451
2023-01-09T19:31:17.256Z,94.67346596962675
2023-01-09T19:34:17.956Z,95.80985558427592
2023-01-09T19:37:18.427Z,95.31239859956834
2023-01-09T19:41:19.542Z,95.21146712481675
2023-01-09T19:44:17.072Z,96.18848864901396
2023-01-09T19:47:17.049Z,96.91220054266681
2023-01-09T19:51:17.815Z,97.57128609540115
2023-01-09T19:54:16.432Z,96.89664419767324
2023-01-09T19:57:16.535Z,96.62530217764645
2023-01-09T20:01:19.717Z,96.54848879672919
2023-01-09T20:04:18.824Z,96.94129629494132
2023-01-09T20:07:17.327Z,98.7301086428997
2023-01-09T20:11:16.401Z,99.14157581363972
2023-01-09T20:14:18.202Z,98.9406933105477
2023-01-09T20:17:18.022Z,99.36710941140355
2023-01-09T20:21:16.919Z,99.75710582848292
2023-01-09T20:24:17.106Z,100
2023-01-09T20:27:17.196Z,99.4526543824932
2023-01-09T20:31:22.695Z,99.3792943373981
2023-01-09T20:34:32.989Z,100
2023-01-09T20:37:18.270Z,100
2023-01-09T20:51:16.406Z,100
2023-01-09T20:54:17.896Z,100
2023-01-09T20:57:16.613Z,100
2023-01-09T21:01:16.640Z,99.06188359431597
2023-01-09T21:04:18.305Z,98.68699556120255
2023-01-09T21:07:17.026Z,97.6659708669303
2023-01-09T21:11:17.044Z,97.47702191576154
2023-01-09T21:14:17.160Z,96.6373555061056
2023-01-09T21:17:17.147Z,96.0881118277979
2023-01-09T21:21:18.331Z,96.38274964338702
2023-01-09T21:24:16.324Z,96.31276597565876
2023-01-09T21:27:16.336Z,96.53519166124026
2023-01-09T21:31:19.946Z,96.66766404322826
2023-01-09T21:34:20.732Z,97.23237122927472
2023-01-09T21:37:17.260Z,98.06296746213755
2023-01-09T21:51:16.300Z,99.82056674351607
2023-01-09T21:54:16.585Z,100
2023-01-09T21:57:17.025Z,98.47183415502384
2023-01-09T22:01:16.120Z,97.8216136359155
2023-01-09T22:04:18.588Z,99.02519632106795
2023-01-09T22:07:16.974Z,99.47942655600993
2023-01-09T22:11:16.552Z,98.41727530818889
2023-01-09T22:14:18.287Z,97.72788679268886
2023-01-09T22:17:16.906Z,97.3290646174992
2023-01-09T22:21:17.571Z,97.37624592773882
2023-01-09T22:24:18.165Z,98.79895688954298
2023-01-09T22:27:16.171Z,97.87822651451633
2023-01-09T22:31:18.151Z,96.42704900756756
2023-01-09T22:34:17.694Z,95.71094483797825
2023-01-09T22:37:16.632Z,94.68590390834126
2023-01-09T22:41:16.300Z,91.7182861601264
2023-01-09T22:44:16.567Z,91.14212222616324
2023-01-09T22:47:16.657Z,91.70905140926058
2023-01-09T22:51:18.329Z,91.3061011540407
2023-01-09T22:54:16.467Z,91.69386147324795
2023-01-09T22:57:16.230Z,90.66316670684405
2023-01-09T23:01:15.994Z,90.29603691535331
2023-01-09T23:04:16.744Z,89.11764696299554
2023-01-09T23:07:16.307Z,88.9710830611056
2023-01-09T23:11:19.821Z,89.54455871809498
2023-01-09T23:14:16.585Z,89.59606288216004
2023-01-09T23:17:16.422Z,88.99137327839121
2023-01-09T23:21:16.642Z,89.37666667157524
2023-01-09T23:24:18.119Z,89.77696016139636
2023-01-09T23:27:17.116Z,90.37835179011599
2023-01-09T23:31:16.671Z,90.3613693704829
2023-01-09T23:34:19.558Z,90.27341673375591
2023-01-09T23:37:17.026Z,91.2568996447666
2023-01-09T23:41:16.093Z,91.31755346221986
2023-01-09T23:44:16.679Z,90.56254358328513
2023-01-09T23:47:16.581Z,89.82458480804969
2023-01-09T23:51:16.103Z,89.50175647393844
2023-01-09T23:54:17.439Z,90.21425278287418
2023-01-09T23:57:16.408Z,90.80224592642773
